createdAt,value
2023-03-29T00:00:36.626Z,2.30
2023-03-29T00:03:05.226Z,2.30
2023-03-29T00:05:35.154Z,2.30
2023-03-29T00:08:04.359Z,2.40
2023-03-29T00:10:33.975Z,2.40
2023-03-29T00:13:02.236Z,2.40
2023-03-29T00:15:32.063Z,2.40
2023-03-29T00:18:00.257Z,2.40
2023-03-29T00:20:28.784Z,2.40
2023-03-29T00:22:57.442Z,2.50
2023-03-29T00:25:25.699Z,2.50
2023-03-29T00:27:54.032Z,2.50
2023-03-29T00:30:22.242Z,2.50
2023-03-29T00:32:51.835Z,2.50
2023-03-29T00:35:20.228Z,2.50
2023-03-29T00:37:50.903Z,2.50
2023-03-29T00:40:20.142Z,2.60
2023-03-29T00:42:48.152Z,2.50
2023-03-29T00:45:21.036Z,2.50
2023-03-29T00:47:52.917Z,2.60
2023-03-29T00:50:26.302Z,2.60
2023-03-29T00:53:00.889Z,2.60
2023-03-29T00:55:33.175Z,2.60
2023-03-29T00:58:02.650Z,2.60
2023-03-29T01:00:35.236Z,2.90
2023-03-29T01:03:13.607Z,2.70
2023-03-29T01:05:45.697Z,2.80
2023-03-29T01:08:20.277Z,2.80
2023-03-29T01:10:53.914Z,2.90
2023-03-29T01:13:27.384Z,2.90
2023-03-29T01:15:57.248Z,3.00
2023-03-29T01:18:26.713Z,3.00
2023-03-29T01:21:10.485Z,3.00
2023-03-29T01:24:07.626Z,3.10
2023-03-29T01:26:48.581Z,3.10
2023-03-29T01:29:25.334Z,3.10
2023-03-29T01:31:59.341Z,3.10
2023-03-29T01:34:34.584Z,3.20
2023-03-29T01:37:08.838Z,3.20
2023-03-29T01:39:36.938Z,3.10
2023-03-29T01:42:16.526Z,3.20
2023-03-29T01:44:53.693Z,3.20
2023-03-29T01:47:31.463Z,3.20
2023-03-29T01:50:07.543Z,3.20
2023-03-29T01:52:41.408Z,3.20
2023-03-29T01:55:13.054Z,3.10
2023-03-29T01:57:44.846Z,3.10
2023-03-29T02:00:19.044Z,3.10
2023-03-29T02:02:49.735Z,3.10
2023-03-29T02:05:18.361Z,3.20
2023-03-29T02:07:48.601Z,3.20
2023-03-29T02:10:18.617Z,3.10
2023-03-29T02:12:46.825Z,3.20
2023-03-29T02:15:19.939Z,3.20
2023-03-29T02:17:49.327Z,3.10
2023-03-29T02:20:22.454Z,3.10
2023-03-29T02:22:58.477Z,3.10
2023-03-29T02:25:27.380Z,3.10
2023-03-29T02:27:55.918Z,3.10
2023-03-29T02:30:28.185Z,3.10
2023-03-29T02:33:02.014Z,3.10
2023-03-29T02:35:36.698Z,3.10
2023-03-29T02:38:08.851Z,3.10
2023-03-29T02:40:37.899Z,3.10
2023-03-29T02:43:08.580Z,3.10
2023-03-29T02:45:39.124Z,3.10
2023-03-29T02:48:12.489Z,3.10
2023-03-29T02:50:44.060Z,3.10
2023-03-29T02:53:17.659Z,3.00
2023-03-29T02:55:47.228Z,3.00
2023-03-29T02:58:15.728Z,3.10
2023-03-29T03:00:47.270Z,3.10
2023-03-29T03:03:16.820Z,3.10
2023-03-29T03:05:45.054Z,3.00
2023-03-29T03:08:13.495Z,3.00
2023-03-29T03:10:41.497Z,3.00
2023-03-29T03:13:09.471Z,2.90
2023-03-29T03:15:37.401Z,2.90
2023-03-29T03:18:07.066Z,2.90
2023-03-29T03:20:35.884Z,2.90
2023-03-29T03:23:04.122Z,2.90
2023-03-29T03:25:32.390Z,2.80
2023-03-29T03:28:01.076Z,2.80
2023-03-29T03:30:29.348Z,2.80
2023-03-29T03:32:57.968Z,2.80
2023-03-29T03:35:27.427Z,2.80
2023-03-29T03:37:55.537Z,2.80
2023-03-29T03:40:23.579Z,2.80
2023-03-29T03:42:51.822Z,2.70
2023-03-29T03:45:20.546Z,2.80
2023-03-29T03:47:48.586Z,2.80
2023-03-29T03:50:16.690Z,2.80
2023-03-29T03:52:46.604Z,2.70
2023-03-29T03:55:14.800Z,2.80
2023-03-29T03:57:43.179Z,2.70
2023-03-29T04:00:19.195Z,2.70
2023-03-29T04:02:48.357Z,2.70
2023-03-29T04:05:17.308Z,2.70
2023-03-29T04:07:46.892Z,2.60
2023-03-29T04:10:15.718Z,2.60
2023-03-29T04:12:43.944Z,2.70
2023-03-29T04:15:12.256Z,2.80
2023-03-29T04:17:40.793Z,2.60
2023-03-29T04:20:12.220Z,2.60
2023-03-29T04:22:40.993Z,2.60
2023-03-29T04:25:11.904Z,2.50
2023-03-29T04:27:40.326Z,2.70
2023-03-29T04:30:09.529Z,2.50
2023-03-29T04:32:38.265Z,2.60
2023-03-29T04:35:06.983Z,2.60
2023-03-29T04:37:35.286Z,2.50
2023-03-29T04:40:04.790Z,2.50
2023-03-29T04:42:34.865Z,2.50
2023-03-29T04:45:03.871Z,2.60
2023-03-29T04:47:32.740Z,2.50
2023-03-29T04:50:00.768Z,2.50
2023-03-29T04:52:32.979Z,2.50
2023-03-29T04:55:01.459Z,2.50
2023-03-29T04:57:30.606Z,2.50
2023-03-29T05:00:00.057Z,2.60
2023-03-29T05:02:30.857Z,2.60
2023-03-29T05:04:58.934Z,2.60
2023-03-29T05:07:26.910Z,2.60
2023-03-29T05:09:55.454Z,2.60
2023-03-29T05:12:23.434Z,2.70
2023-03-29T05:14:51.434Z,2.70
2023-03-29T05:17:21.544Z,2.80
2023-03-29T05:19:49.673Z,2.80
2023-03-29T05:22:18.102Z,2.90
2023-03-29T05:24:46.076Z,2.90
2023-03-29T05:27:14.237Z,3.00
2023-03-29T05:29:42.581Z,3.10
2023-03-29T05:32:10.593Z,3.10
2023-03-29T05:34:40.360Z,3.20
2023-03-29T05:37:08.352Z,3.20
2023-03-29T05:39:37.996Z,3.30
2023-03-29T05:42:06.750Z,3.30
2023-03-29T05:44:35.229Z,3.30
2023-03-29T05:47:03.512Z,3.40
2023-03-29T05:49:31.881Z,3.50
2023-03-29T05:52:01.438Z,3.50
2023-03-29T05:54:29.449Z,3.60
2023-03-29T05:56:57.500Z,3.60
2023-03-29T05:59:28.644Z,3.70
2023-03-29T06:01:57.743Z,3.80
2023-03-29T06:04:26.409Z,3.80
2023-03-29T06:06:55.012Z,3.90
2023-03-29T06:09:25.718Z,3.90
2023-03-29T06:11:56.709Z,4.00
2023-03-29T06:14:24.955Z,4.10
2023-03-29T06:16:53.465Z,4.10
2023-03-29T06:19:21.599Z,4.20
2023-03-29T06:21:50.029Z,4.30
2023-03-29T06:24:18.451Z,4.30
2023-03-29T06:26:48.063Z,4.30
2023-03-29T06:29:16.108Z,4.40
2023-03-29T06:31:44.172Z,4.50
2023-03-29T06:34:13.774Z,4.50
2023-03-29T06:36:42.206Z,4.50
2023-03-29T06:39:11.043Z,4.50
2023-03-29T06:41:39.256Z,4.70
2023-03-29T06:44:08.882Z,4.60
2023-03-29T06:46:37.590Z,4.70
2023-03-29T06:49:06.169Z,4.70
2023-03-29T06:51:34.250Z,4.70
2023-03-29T06:54:04.189Z,4.80
2023-03-29T06:56:32.201Z,4.80
2023-03-29T06:59:00.181Z,4.90
2023-03-29T07:01:32.826Z,4.90
2023-03-29T07:04:04.780Z,5.00
2023-03-29T07:06:33.713Z,5.20
2023-03-29T07:09:01.868Z,5.40
2023-03-29T07:11:30.970Z,5.60
2023-03-29T07:13:59.285Z,5.90
2023-03-29T07:16:27.848Z,6.20
2023-03-29T07:18:57.488Z,6.50
2023-03-29T07:21:26.576Z,6.90
2023-03-29T07:23:54.561Z,7.20
2023-03-29T07:26:29.029Z,7.40
2023-03-29T07:28:58.718Z,7.70
2023-03-29T07:31:29.335Z,7.80
2023-03-29T07:34:00.744Z,8.00
2023-03-29T07:36:29.276Z,8.20
2023-03-29T07:38:57.853Z,8.20
2023-03-29T07:41:25.904Z,8.30
2023-03-29T07:43:54.214Z,8.40
2023-03-29T07:46:22.490Z,8.40
2023-03-29T07:48:51.190Z,8.50
2023-03-29T07:51:20.692Z,8.50
2023-03-29T07:53:49.158Z,8.70
2023-03-29T07:56:17.194Z,8.70
2023-03-29T07:58:46.528Z,8.70
2023-03-29T08:01:18.827Z,8.80
2023-03-29T08:03:48.030Z,8.90
2023-03-29T08:06:17.172Z,8.90
2023-03-29T08:08:46.540Z,9.00
2023-03-29T08:11:15.298Z,9.00
2023-03-29T08:13:43.478Z,9.10
2023-03-29T08:16:11.808Z,9.10
2023-03-29T08:18:40.079Z,9.30
2023-03-29T08:21:08.934Z,9.40
2023-03-29T08:23:37.135Z,9.60
2023-03-29T08:26:11.469Z,9.70
2023-03-29T08:28:39.491Z,9.90
2023-03-29T08:31:09.805Z,10.00
2023-03-29T08:33:38.772Z,9.90
2023-03-29T08:36:07.335Z,9.90
2023-03-29T08:38:36.016Z,9.80
2023-03-29T08:41:19.767Z,9.70
2023-03-29T08:44:01.883Z,9.70
2023-03-29T08:46:37.349Z,9.60
2023-03-29T08:49:08.343Z,9.70
2023-03-29T08:51:39.865Z,9.80
2023-03-29T08:54:12.654Z,9.80
2023-03-29T08:56:46.998Z,9.90
2023-03-29T08:59:20.681Z,10.00
2023-03-29T09:01:51.839Z,10.00
2023-03-29T09:04:24.159Z,10.00
2023-03-29T09:06:52.437Z,10.20
2023-03-29T09:09:23.775Z,10.50
2023-03-29T09:12:04.981Z,10.80
2023-03-29T09:14:48.719Z,11.50
2023-03-29T09:17:32.516Z,12.00
2023-03-29T09:20:13.988Z,12.50
2023-03-29T09:22:48.142Z,12.40
2023-03-29T09:25:24.127Z,12.00
2023-03-29T09:28:01.734Z,12.30
2023-03-29T09:30:33.496Z,13.00
2023-03-29T09:33:07.638Z,13.50
2023-03-29T09:35:39.302Z,14.20
2023-03-29T09:38:10.919Z,15.20
2023-03-29T09:40:43.816Z,16.30
2023-03-29T09:43:17.691Z,17.70
2023-03-29T09:45:51.840Z,17.00
2023-03-29T09:48:21.836Z,16.50
2023-03-29T09:50:56.028Z,15.50
2023-03-29T09:53:25.449Z,14.70
2023-03-29T09:55:55.304Z,14.30
2023-03-29T09:58:28.179Z,14.20
2023-03-29T10:01:00.345Z,13.70
2023-03-29T10:03:31.253Z,13.20
2023-03-29T10:06:01.616Z,13.00
2023-03-29T10:08:31.939Z,12.80
2023-03-29T10:11:02.262Z,12.80
2023-03-29T10:13:34.549Z,12.70
2023-03-29T10:16:04.952Z,12.70
2023-03-29T10:18:34.477Z,12.80
2023-03-29T10:21:06.136Z,12.90
2023-03-29T10:23:35.965Z,13.20
2023-03-29T10:26:05.727Z,13.40
2023-03-29T10:28:37.320Z,13.50
2023-03-29T10:31:08.448Z,13.70
2023-03-29T10:33:37.754Z,14.20
2023-03-29T10:36:08.746Z,14.80
2023-03-29T10:38:38.619Z,14.70
2023-03-29T10:41:11.201Z,14.60
2023-03-29T10:43:45.372Z,14.30
2023-03-29T10:46:22.079Z,14.10
2023-03-29T10:48:52.320Z,14.20
2023-03-29T10:51:21.654Z,14.50
2023-03-29T10:53:49.735Z,15.30
2023-03-29T10:56:40.185Z,15.70
2023-03-29T10:59:30.177Z,16.50
2023-03-29T11:02:30.263Z,17.10
2023-03-29T11:05:10.516Z,17.40
2023-03-29T11:07:50.558Z,16.90
2023-03-29T11:10:33.869Z,16.40
2023-03-29T11:15:58.012Z,15.30
2023-03-29T11:18:41.211Z,15.40
2023-03-29T11:21:18.910Z,15.00
2023-03-29T11:23:54.788Z,14.80
2023-03-29T11:26:27.300Z,14.60
2023-03-29T11:29:02.610Z,14.30
2023-03-29T11:31:40.134Z,14.10
2023-03-29T11:34:21.808Z,13.90
2023-03-29T11:36:55.700Z,13.90
2023-03-29T11:39:31.568Z,13.70
2023-03-29T11:42:09.281Z,13.70
2023-03-29T11:44:39.395Z,13.60
2023-03-29T11:47:15.186Z,13.50
2023-03-29T11:49:49.261Z,13.50
2023-03-29T11:52:20.836Z,13.30
2023-03-29T11:54:53.439Z,13.20
2023-03-29T11:57:27.509Z,13.20
2023-03-29T12:00:02.557Z,13.40
2023-03-29T12:02:37.688Z,13.70
2023-03-29T12:05:14.543Z,13.80
2023-03-29T12:07:50.329Z,13.70
2023-03-29T12:10:21.235Z,13.70
2023-03-29T12:12:56.173Z,13.90
2023-03-29T12:15:26.792Z,13.90
2023-03-29T12:18:04.408Z,13.70
2023-03-29T12:20:36.315Z,13.90
2023-03-29T12:23:06.708Z,13.80
2023-03-29T12:25:46.584Z,13.90
2023-03-29T12:28:26.626Z,14.00
2023-03-29T12:31:05.209Z,14.00
2023-03-29T12:34:01.510Z,14.30
2023-03-29T12:36:55.743Z,14.40
2023-03-29T12:39:25.822Z,14.30
2023-03-29T12:41:54.031Z,14.30
2023-03-29T12:44:24.504Z,14.40
2023-03-29T12:46:59.435Z,14.60
2023-03-29T12:49:34.144Z,14.80
2023-03-29T12:52:05.074Z,15.00
2023-03-29T12:54:34.829Z,15.10
2023-03-29T12:57:19.460Z,15.40
2023-03-29T12:59:49.373Z,15.30
2023-03-29T13:02:38.022Z,15.30
2023-03-29T13:05:33.177Z,15.00
2023-03-29T13:08:12.684Z,15.10
2023-03-29T13:10:44.175Z,15.10
2023-03-29T13:13:18.214Z,14.80
2023-03-29T13:15:46.836Z,14.80
2023-03-29T13:18:38.757Z,14.60
2023-03-29T13:21:18.218Z,14.50
2023-03-29T13:23:54.759Z,14.40
2023-03-29T13:26:38.118Z,14.30
2023-03-29T13:29:38.026Z,14.50
2023-03-29T13:32:22.791Z,14.60
2023-03-29T13:34:58.470Z,14.60
2023-03-29T13:37:41.203Z,14.60
2023-03-29T13:40:34.702Z,14.70
2023-03-29T13:43:11.565Z,14.60
2023-03-29T13:45:40.517Z,14.30
2023-03-29T13:48:26.205Z,14.30
2023-03-29T13:50:56.338Z,14.30
2023-03-29T13:53:32.711Z,14.20
2023-03-29T13:56:01.744Z,14.30
2023-03-29T13:58:37.503Z,14.60
2023-03-29T14:01:12.983Z,14.90
2023-03-29T14:03:45.898Z,15.00
2023-03-29T14:06:16.923Z,15.10
2023-03-29T14:08:46.834Z,14.90
2023-03-29T14:11:24.054Z,15.00
2023-03-29T14:13:55.149Z,15.00
2023-03-29T14:16:24.459Z,14.80
2023-03-29T14:18:52.817Z,14.80
2023-03-29T14:21:22.135Z,14.90
2023-03-29T14:23:59.018Z,15.10
2023-03-29T14:26:32.379Z,15.20
2023-03-29T14:29:04.600Z,15.40
2023-03-29T14:31:35.038Z,15.50
2023-03-29T14:34:05.226Z,15.40
2023-03-29T14:36:34.382Z,15.40
2023-03-29T14:39:07.096Z,15.40
2023-03-29T14:41:38.481Z,15.40
2023-03-29T14:44:08.809Z,15.40
2023-03-29T14:46:37.326Z,15.30
2023-03-29T14:49:06.271Z,15.30
2023-03-29T14:51:34.704Z,15.30
2023-03-29T14:54:06.129Z,15.00
2023-03-29T14:56:35.055Z,15.10
2023-03-29T14:59:05.314Z,15.00
2023-03-29T15:01:33.464Z,15.00
2023-03-29T15:04:06.191Z,14.80
2023-03-29T15:06:38.826Z,14.90
2023-03-29T15:09:09.386Z,14.80
2023-03-29T15:11:39.751Z,14.80
2023-03-29T15:14:10.231Z,14.80
2023-03-29T15:16:42.257Z,14.80
2023-03-29T15:19:16.129Z,14.70
2023-03-29T15:21:45.150Z,14.70
2023-03-29T15:24:22.862Z,14.70
2023-03-29T15:27:04.457Z,14.70
2023-03-29T15:29:40.552Z,14.60
2023-03-29T15:32:09.331Z,14.50
2023-03-29T15:34:38.331Z,14.20
2023-03-29T15:37:07.895Z,14.20
2023-03-29T15:39:44.188Z,14.00
2023-03-29T15:42:12.642Z,13.90
2023-03-29T15:44:41.218Z,13.80
2023-03-29T15:47:11.529Z,13.80
2023-03-29T15:49:39.748Z,13.90
2023-03-29T15:52:08.210Z,13.70
2023-03-29T15:54:37.718Z,13.60
2023-03-29T15:57:08.401Z,13.60
2023-03-29T15:59:37.302Z,13.50
2023-03-29T16:02:05.763Z,13.40
2023-03-29T16:04:33.822Z,13.30
2023-03-29T16:07:02.231Z,13.30
2023-03-29T16:09:30.723Z,13.20
2023-03-29T16:12:02.802Z,13.10
2023-03-29T16:14:33.184Z,13.00
2023-03-29T16:17:03.268Z,13.00
2023-03-29T16:19:32.639Z,13.00
2023-03-29T16:22:01.776Z,12.90
2023-03-29T16:24:32.379Z,12.70
2023-03-29T16:27:03.029Z,12.50
2023-03-29T16:29:31.719Z,12.40
2023-03-29T16:31:59.890Z,12.40
2023-03-29T16:34:30.520Z,12.30
2023-03-29T16:36:58.720Z,12.30
2023-03-29T16:39:27.063Z,12.20
2023-03-29T16:41:55.066Z,12.10
2023-03-29T16:44:27.022Z,12.10
2023-03-29T16:46:57.421Z,12.00
2023-03-29T16:49:26.038Z,12.00
2023-03-29T16:51:54.159Z,12.00
2023-03-29T16:54:25.617Z,11.90
2023-03-29T16:56:53.974Z,11.90
2023-03-29T16:59:22.402Z,11.80
2023-03-29T17:01:52.389Z,11.80
2023-03-29T17:04:20.591Z,11.80
2023-03-29T17:06:48.721Z,11.80
2023-03-29T17:09:17.626Z,11.80
2023-03-29T17:11:46.303Z,11.80
2023-03-29T17:14:15.032Z,11.70
2023-03-29T17:16:43.304Z,11.70
2023-03-29T17:19:12.979Z,11.70
2023-03-29T17:21:41.112Z,11.60
2023-03-29T17:24:10.527Z,11.60
2023-03-29T17:26:38.856Z,11.60
2023-03-29T17:29:06.915Z,11.60
2023-03-29T17:31:36.667Z,11.60
2023-03-29T17:34:04.927Z,11.50
2023-03-29T17:36:37.376Z,11.60
2023-03-29T17:39:06.012Z,11.60
2023-03-29T17:41:34.118Z,11.60
2023-03-29T17:44:02.227Z,11.60
2023-03-29T17:46:30.365Z,11.50
2023-03-29T17:48:59.199Z,11.50
2023-03-29T17:51:28.122Z,11.40
2023-03-29T17:53:58.277Z,11.40
2023-03-29T17:56:26.574Z,11.40
2023-03-29T17:58:54.938Z,11.30
2023-03-29T18:01:23.127Z,11.40
2023-03-29T18:03:51.983Z,11.30
2023-03-29T18:06:20.917Z,11.30
2023-03-29T18:08:49.251Z,11.30
2023-03-29T18:11:22.583Z,11.30
2023-03-29T18:13:51.332Z,11.20
2023-03-29T18:16:20.783Z,11.20
2023-03-29T18:18:49.580Z,11.10
2023-03-29T18:21:18.539Z,11.10
2023-03-29T18:23:47.549Z,11.10
2023-03-29T18:26:16.595Z,11.00
2023-03-29T18:28:47.916Z,11.00
2023-03-29T18:31:16.594Z,10.90
2023-03-29T18:33:44.741Z,10.90
2023-03-29T18:36:13.551Z,10.90
2023-03-29T18:38:43.305Z,10.90
2023-03-29T18:41:13.401Z,10.80
2023-03-29T18:43:43.046Z,10.80
2023-03-29T18:46:12.499Z,10.80
2023-03-29T18:48:41.151Z,10.80
2023-03-29T18:51:10.246Z,10.70
2023-03-29T18:53:42.025Z,10.60
2023-03-29T18:56:10.208Z,10.50
2023-03-29T18:58:38.353Z,10.40
2023-03-29T19:01:07.855Z,10.30
2023-03-29T19:03:37.793Z,10.20
2023-03-29T19:06:06.976Z,10.10
2023-03-29T19:08:36.664Z,10.00
2023-03-29T19:11:07.397Z,9.90
2023-03-29T19:13:35.563Z,9.80
2023-03-29T19:16:04.334Z,9.80
2023-03-29T19:18:33.077Z,9.70
2023-03-29T19:21:02.607Z,9.70
2023-03-29T19:23:30.686Z,9.70
2023-03-29T19:26:00.269Z,9.70
2023-03-29T19:28:28.488Z,9.70
2023-03-29T19:30:57.770Z,9.60
2023-03-29T19:33:26.052Z,9.60
2023-03-29T19:35:54.383Z,9.50
2023-03-29T19:38:23.972Z,9.50
2023-03-29T19:40:52.901Z,9.50
2023-03-29T19:43:22.032Z,9.50
2023-03-29T19:45:51.876Z,9.50
2023-03-29T19:48:23.588Z,9.50
2023-03-29T19:50:52.300Z,9.50
2023-03-29T19:53:20.341Z,9.50
2023-03-29T19:55:50.281Z,9.50
2023-03-29T19:58:18.307Z,9.40
2023-03-29T20:00:46.681Z,9.40
2023-03-29T20:03:15.737Z,9.40
2023-03-29T20:05:44.408Z,9.30
2023-03-29T20:08:12.661Z,9.30
2023-03-29T20:10:40.652Z,9.30
2023-03-29T20:13:10.656Z,9.20
2023-03-29T20:15:38.907Z,9.20
2023-03-29T20:18:07.991Z,9.20
2023-03-29T20:20:39.646Z,9.20
2023-03-29T20:23:08.114Z,9.10
2023-03-29T20:25:36.772Z,9.10
2023-03-29T20:28:06.570Z,9.00
2023-03-29T20:30:36.242Z,9.10
2023-03-29T20:33:04.950Z,9.10
2023-03-29T20:35:34.011Z,9.10
2023-03-29T20:38:02.118Z,9.10
2023-03-29T20:40:31.577Z,9.10
2023-03-29T20:42:59.607Z,9.10
2023-03-29T20:45:28.017Z,9.10
2023-03-29T20:48:01.996Z,9.10
2023-03-29T20:50:30.312Z,9.20
2023-03-29T20:53:03.752Z,9.20
2023-03-29T20:55:33.562Z,9.20
2023-03-29T20:58:03.039Z,9.20
2023-03-29T21:00:33.468Z,9.30
2023-03-29T21:03:04.121Z,9.30
2023-03-29T21:05:34.435Z,9.40
2023-03-29T21:08:03.712Z,9.40
2023-03-29T21:10:31.975Z,9.40
2023-03-29T21:13:00.517Z,9.40
2023-03-29T21:15:30.687Z,9.50
2023-03-29T21:17:59.778Z,9.50
2023-03-29T21:20:29.435Z,9.50
2023-03-29T21:22:57.680Z,9.50
2023-03-29T21:25:25.722Z,9.50
2023-03-29T21:27:53.733Z,9.50
2023-03-29T21:30:22.022Z,9.50
2023-03-29T21:32:50.160Z,9.50
2023-03-29T21:35:18.356Z,9.50
2023-03-29T21:37:47.719Z,9.50
2023-03-29T21:40:15.684Z,9.50
2023-03-29T21:42:44.050Z,9.50
2023-03-29T21:45:12.893Z,9.50
2023-03-29T21:47:41.194Z,9.50
2023-03-29T21:50:10.702Z,9.50
2023-03-29T21:52:38.893Z,9.50
2023-03-29T21:55:09.743Z,9.50
2023-03-29T21:57:37.838Z,9.50
2023-03-29T22:00:10.934Z,9.40
2023-03-29T22:02:39.543Z,9.50
2023-03-29T22:05:07.951Z,9.40
2023-03-29T22:07:38.826Z,9.40
2023-03-29T22:10:11.572Z,9.40
2023-03-29T22:12:41.362Z,9.40
2023-03-29T22:15:11.662Z,9.30
2023-03-29T22:17:44.560Z,9.30
2023-03-29T22:20:13.866Z,9.30
2023-03-29T22:22:45.215Z,9.30
2023-03-29T22:25:14.806Z,9.30
2023-03-29T22:27:43.830Z,9.30
2023-03-29T22:30:13.140Z,9.30
2023-03-29T22:32:41.693Z,9.30
2023-03-29T22:35:10.791Z,9.30
2023-03-29T22:37:42.292Z,9.20
2023-03-29T22:40:12.057Z,9.20
2023-03-29T22:42:42.494Z,9.30
2023-03-29T22:45:11.537Z,9.20
2023-03-29T22:47:39.838Z,9.30
2023-03-29T22:50:08.940Z,9.30
2023-03-29T22:52:36.960Z,9.30
2023-03-29T22:55:06.126Z,9.30
2023-03-29T22:57:34.530Z,9.30
2023-03-29T23:00:08.646Z,9.30
2023-03-29T23:02:36.979Z,9.30
2023-03-29T23:05:05.197Z,9.40
2023-03-29T23:07:36.989Z,9.40
2023-03-29T23:10:06.427Z,9.60
2023-03-29T23:12:36.065Z,9.60
2023-03-29T23:15:07.990Z,9.60
2023-03-29T23:17:37.104Z,9.60
2023-03-29T23:20:06.964Z,9.60
2023-03-29T23:22:36.365Z,9.60
2023-03-29T23:25:04.795Z,9.60
2023-03-29T23:27:33.165Z,9.50
2023-03-29T23:30:01.792Z,9.50
2023-03-29T23:32:31.781Z,9.50
2023-03-29T23:35:01.205Z,9.50
2023-03-29T23:37:29.283Z,9.60
2023-03-29T23:39:57.430Z,9.60
2023-03-29T23:42:25.932Z,9.60
2023-03-29T23:44:53.932Z,9.60
2023-03-29T23:47:22.002Z,9.60
2023-03-29T23:49:53.179Z,9.70
2023-03-29T23:52:21.238Z,9.60
2023-03-29T23:54:51.856Z,9.70
2023-03-29T23:57:21.332Z,9.70
2023-03-29T23:59:52.529Z,9.70
